Time;durP1;ratioP1;P1;durP2;ratioP2;P2;SDS_P1;SDS_P2;PMS_P1;PMS_P2;Temp;Humidity;BMP_temperature;BMP_pressure;BME280_temperature;BME280_humidity;BME280_pressure;Samples;Min_cycle;Max_cycle;Signal;HPM_P1;HPM_P2
2021/12/22 00:02:26;;;;;;;6.70;4.30;;;-5.10;99.90;;;-4.26;100.00;99007.50;5046840;28;20476;-78
2021/12/22 00:04:56;;;;;;;7.60;4.50;;;-5.20;99.90;;;-4.24;100.00;99003.19;5045478;28;20966;-78
2021/12/22 00:07:26;;;;;;;9.83;4.90;;;-5.10;99.90;;;-4.23;100.00;99002.25;5041263;28;20469;-78
2021/12/22 00:09:56;;;;;;;10.70;4.73;;;-5.10;99.90;;;-4.25;100.00;99003.25;5042386;28;20497;-78
2021/12/22 00:12:26;;;;;;;24.40;4.50;;;-5.20;99.90;;;-4.25;100.00;99004.06;5047396;28;20465;-78
2021/12/22 00:14:57;;;;;;;11.63;6.20;;;-5.10;99.90;;;-4.16;100.00;99007.91;5049085;28;20436;-78
2021/12/22 00:17:26;;;;;;;11.27;5.50;;;-5.00;99.90;;;-4.20;100.00;99003.88;5044457;28;20494;-78
2021/12/22 00:19:55;;;;;;;10.00;6.53;;;-5.10;99.90;;;-4.28;100.00;99009.31;5049403;28;20595;-78
2021/12/22 00:22:24;;;;;;;9.33;5.30;;;-5.20;99.90;;;-4.41;100.00;99013.34;5049212;28;20514;-78
2021/12/22 00:24:53;;;;;;;11.80;5.17;;;-5.30;99.90;;;-4.40;100.00;99009.03;5046594;28;20494;-79
2021/12/22 00:27:23;;;;;;;9.93;5.17;;;-5.30;99.90;;;-4.42;100.00;99015.94;5042032;28;20436;-78
2021/12/22 00:29:53;;;;;;;10.77;5.73;;;-5.30;99.90;;;-4.37;100.00;99003.81;5048685;28;20522;-78
2021/12/22 00:32:27;;;;;;;10.20;5.23;;;-5.30;99.90;;;-4.30;100.00;99011.09;5047947;28;20474;-78
2021/12/22 00:34:57;;;;;;;10.20;4.87;;;-5.20;99.90;;;-4.36;100.00;99005.44;5049884;28;20472;-78
2021/12/22 00:37:30;;;;;;;13.93;5.40;;;-5.30;99.90;;;-4.41;100.00;99012.50;5047307;28;20549;-78
2021/12/22 00:40:00;;;;;;;8.03;4.93;;;-5.30;99.90;;;-4.50;100.00;99007.81;5044149;28;20492;-78
2021/12/22 00:42:30;;;;;;;9.07;4.90;;;-5.40;99.90;;;-4.44;100.00;99012.66;5048768;28;20493;-79
2021/12/22 00:44:59;;;;;;;9.30;4.60;;;-5.30;99.90;;;-4.38;100.00;99012.38;5046281;28;20465;-78
2021/12/22 00:47:32;;;;;;;9.20;4.73;;;-5.20;99.90;;;-4.44;100.00;99013.44;5049889;28;20461;-78
2021/12/22 00:50:03;;;;;;;12.90;5.20;;;-5.30;99.90;;;-4.51;100.00;99013.81;5051127;28;20461;-78
2021/12/22 00:52:32;;;;;;;4.40;4.00;;;-5.50;99.90;;;-4.48;100.00;99016.25;5045232;28;20428;-78
2021/12/22 00:55:02;;;;;;;12.50;6.30;;;-5.40;99.90;;;-4.48;100.00;99016.25;5042077;28;20472;-78
2021/12/22 00:57:34;;;;;;;6.90;4.63;;;-5.40;99.90;;;-4.60;100.00;99013.34;5048964;28;20460;-78
2021/12/22 01:00:11;;;;;;;7.60;4.73;;;-5.50;99.90;;;-4.65;100.00;99012.69;5054105;28;20507;-78
2021/12/22 01:02:44;;;;;;;7.50;5.00;;;-5.60;99.90;;;-4.64;100.00;99016.09;5049393;28;20455;-78
2021/12/22 01:05:17;;;;;;;7.87;4.93;;;-5.60;99.90;;;-4.66;100.00;99018.72;5049767;28;20439;-78
2021/12/22 01:07:51;;;;;;;9.97;4.50;;;-5.60;99.90;;;-4.78;100.00;99028.63;5041151;28;20837;-79
2021/12/22 01:10:24;;;;;;;8.03;5.10;;;-5.70;99.90;;;-4.63;100.00;99023.69;5049245;28;20514;-78
2021/12/22 01:12:56;;;;;;;7.23;4.40;;;-5.50;99.90;;;-4.65;100.00;99020.34;5043512;28;20465;-78
2021/12/22 01:15:27;;;;;;;9.23;4.80;;;-5.50;99.90;;;-4.58;100.00;99034.50;5037693;28;22172;-78
2021/12/22 01:18:03;;;;;;;7.20;4.70;;;-5.40;99.90;;;-4.60;100.00;99038.84;5047149;28;20461;-78
2021/12/22 01:20:39;;;;;;;9.70;5.83;;;-5.50;99.90;;;-4.78;100.00;99034.56;5046383;28;20470;-79
2021/12/22 01:23:10;;;;;;;6.13;4.50;;;-5.70;99.90;;;-4.66;100.00;99028.09;5048119;28;20464;-78
2021/12/22 01:25:43;;;;;;;9.40;4.73;;;-5.50;99.90;;;-4.67;100.00;99041.72;5044856;28;20467;-79
2021/12/22 01:28:14;;;;;;;7.80;4.40;;;-5.50;99.90;;;-4.72;100.00;99034.28;5046523;28;20909;-78
2021/12/22 01:30:45;;;;;;;6.80;4.40;;;-5.60;99.90;;;-4.86;100.00;99036.59;5044678;28;20504;-78
2021/12/22 01:33:17;;;;;;;7.37;4.10;;;-5.80;99.90;;;-4.68;100.00;99046.00;5047004;28;20478;-78
2021/12/22 01:35:47;;;;;;;11.17;4.30;;;-5.50;99.90;;;-4.72;100.00;99039.38;5041615;28;20465;-79
2021/12/22 01:38:18;;;;;;;9.27;4.97;;;-5.60;99.90;;;-4.77;100.00;99046.41;5048296;28;20792;-78
2021/12/22 01:40:48;;;;;;;7.80;4.60;;;-5.70;99.90;;;-4.75;100.00;99044.63;5048404;28;20586;-78
2021/12/22 01:43:18;;;;;;;8.30;4.40;;;-5.60;99.90;;;-4.74;100.00;99045.44;5048970;28;20515;-78
2021/12/22 01:45:56;;;;;;;4.60;3.50;;;-5.70;99.90;;;-4.79;100.00;99040.53;5042600;28;20442;-78
2021/12/22 01:51:40;;;;;;;6.20;4.00;;;-5.60;99.90;;;-4.78;100.00;99039.66;5045783;28;20461;-78
2021/12/22 01:54:23;;;;;;;7.93;3.97;;;-5.60;99.90;;;-4.77;100.00;99038.78;5049540;28;20637;-78
2021/12/22 01:56:53;;;;;;;4.60;3.50;;;-5.60;99.90;;;-4.77;100.00;99040.50;5050178;28;20462;-79
2021/12/22 01:59:23;;;;;;;7.60;4.37;;;-5.60;99.90;;;-4.77;100.00;99045.59;5048827;28;20575;-78
2021/12/22 02:01:54;;;;;;;6.60;4.07;;;-5.60;99.90;;;-4.86;100.00;99049.34;5049455;28;20473;-78
2021/12/22 02:04:26;;;;;;;8.13;4.20;;;-5.80;99.90;;;-4.89;100.00;99043.56;5043710;28;20453;-78
2021/12/22 02:06:56;;;;;;;7.63;4.40;;;-5.80;99.90;;;-4.87;100.00;99044.34;5045752;28;20561;-78
2021/12/22 02:09:44;;;;;;;5.60;3.73;;;-5.80;99.90;;;-4.85;100.00;99038.28;5049766;28;20508;-78
2021/12/22 02:12:15;;;;;;;13.30;3.40;;;-5.80;99.90;;;-4.82;100.00;99033.03;5044511;28;20651;-78
2021/12/22 02:14:45;;;;;;;9.73;4.77;;;-5.70;99.90;;;-4.84;100.00;99036.56;5038986;28;20469;-78
2021/12/22 02:17:14;;;;;;;9.90;3.77;;;-5.70;99.90;;;-4.79;100.00;99037.19;5042259;28;20818;-78
2021/12/22 02:19:48;;;;;;;8.10;4.47;;;-5.60;99.90;;;-4.85;100.00;99038.28;5046735;28;20539;-78
2021/12/22 02:22:18;;;;;;;6.20;4.53;;;-5.70;99.90;;;-4.88;100.00;99035.84;5046756;28;20439;-78
2021/12/22 02:24:51;;;;;;;5.80;3.63;;;-5.80;99.90;;;-4.91;100.00;99035.16;5045630;28;20486;-78
2021/12/22 02:27:28;;;;;;;5.80;3.97;;;-5.80;99.90;;;-4.89;100.00;99036.75;5051576;28;20478;-78
2021/12/22 02:30:00;;;;;;;7.93;4.07;;;-5.80;99.90;;;-4.91;100.00;99033.44;5044936;28;21003;-78
2021/12/22 02:33:08;;;;;;;7.20;4.20;;;-5.80;99.90;;;-4.87;100.00;99029.88;5039352;28;20444;-78
2021/12/22 02:35:43;;;;;;;8.77;4.40;;;-5.70;99.90;;;-4.82;100.00;99025.38;5038858;28;20464;-79
2021/12/22 02:38:17;;;;;;;6.63;3.80;;;-5.60;99.90;;;-4.91;100.00;99020.69;5044995;28;20465;-78
2021/12/22 02:40:53;;;;;;;9.80;3.93;;;-5.70;99.90;;;-5.09;100.00;99026.59;5046991;28;20593;-78
2021/12/22 02:43:24;;;;;;;8.20;4.17;;;-5.90;99.90;;;-4.95;100.00;99021.72;5050863;28;20466;-78
2021/12/22 02:45:54;;;;;;;15.30;4.60;;;-5.80;99.90;;;-5.03;100.00;99018.66;5046573;28;20445;-78
2021/12/22 02:48:24;;;;;;;5.43;3.67;;;-5.90;99.90;;;-4.99;100.00;99025.28;5046338;28;20440;-77
2021/12/22 02:50:57;;;;;;;4.27;3.63;;;-5.70;99.90;;;-4.99;100.00;99024.47;5042805;28;20878;-78
2021/12/22 02:53:36;;;;;;;11.70;4.40;;;-5.70;99.90;;;-5.04;100.00;99024.69;5047428;28;20970;-79
2021/12/22 02:56:17;;;;;;;12.17;4.40;;;-5.90;99.90;;;-5.03;100.00;99023.75;5046203;28;20464;-78
2021/12/22 02:58:57;;;;;;;12.10;4.33;;;-5.90;99.90;;;-4.99;100.00;99020.19;5046133;28;20488;-78
2021/12/22 03:01:53;;;;;;;9.20;5.10;;;-5.80;99.90;;;-5.02;100.00;99025.44;5043988;28;20571;-78
2021/12/22 03:04:29;;;;;;;8.80;3.73;;;-5.80;99.90;;;-5.08;100.00;99020.59;5048415;28;20449;-78
2021/12/22 03:07:05;;;;;;;9.93;4.20;;;-6.00;99.90;;;-5.06;100.00;99018.81;5048239;28;20941;-78
2021/12/22 03:09:37;;;;;;;9.30;4.80;;;-5.80;99.90;;;-5.03;100.00;99013.56;5041125;28;20468;-78
2021/12/22 03:12:11;;;;;;;3.53;3.07;;;-5.80;99.90;;;-5.09;100.00;99024.88;5045955;28;20846;-78
2021/12/22 03:14:41;;;;;;;9.90;4.67;;;-6.00;99.90;;;-5.15;100.00;99019.22;5047567;28;20700;-78
2021/12/22 03:17:11;;;;;;;13.07;4.47;;;-6.00;99.90;;;-5.21;100.00;99009.28;5052501;28;20464;-78
2021/12/22 03:19:44;;;;;;;6.87;4.00;;;-6.10;99.90;;;-5.08;100.00;99015.50;5048694;28;20438;-78
2021/12/22 03:22:18;;;;;;;9.83;4.63;;;-5.90;99.90;;;-5.10;100.00;99009.63;5043137;28;20430;-78
2021/12/22 03:24:50;;;;;;;10.40;5.10;;;-5.90;99.90;;;-5.18;100.00;99009.97;5042972;28;20464;-78
2021/12/22 03:27:22;;;;;;;8.17;4.80;;;-6.00;99.90;;;-5.20;100.00;99011.75;5047224;28;20461;-78
2021/12/22 03:29:53;;;;;;;5.30;3.60;;;-6.10;99.90;;;-5.21;100.00;99012.66;5048487;28;20476;-78
2021/12/22 03:32:22;;;;;;;6.77;4.50;;;-6.10;99.90;;;-5.15;100.00;99012.41;5047604;28;20464;-78
2021/12/22 03:34:52;;;;;;;9.47;4.70;;;-6.00;99.90;;;-5.14;100.00;99011.47;5045834;28;20456;-78
2021/12/22 03:37:23;;;;;;;9.40;3.93;;;-6.00;99.90;;;-5.23;100.00;99011.88;5047112;28;20464;-78
2021/12/22 03:39:53;;;;;;;8.47;4.50;;;-6.10;99.90;;;-5.30;100.00;99009.66;5043115;28;20513;-78
2021/12/22 03:42:22;;;;;;;10.40;4.03;;;-6.30;99.90;;;-5.42;100.00;99015.28;5046934;28;20424;-78
2021/12/22 03:44:53;;;;;;;8.37;4.40;;;-6.40;99.90;;;-5.41;100.00;99012.66;5044846;28;20435;-77
2021/12/22 03:47:26;;;;;;;4.40;3.10;;;-6.40;99.90;;;-5.41;100.00;99009.28;5046738;28;20423;-80
2021/12/22 03:49:56;;;;;;;7.10;3.80;;;-6.30;99.90;;;-5.28;100.00;99007.88;5046308;28;20456;-78
2021/12/22 03:52:27;;;;;;;5.93;3.93;;;-6.20;99.90;;;-5.20;100.00;98999.00;5044856;28;20436;-79
2021/12/22 03:55:03;;;;;;;10.87;3.80;;;-6.00;99.90;;;-5.16;100.00;99004.78;5047332;28;20434;-78
2021/12/22 03:57:33;;;;;;;12.40;3.90;;;-6.00;99.90;;;-5.23;100.00;99008.50;5050657;28;20459;-78
2021/12/22 04:00:04;;;;;;;7.20;4.00;;;-6.00;99.90;;;-5.34;100.00;99008.13;5046387;28;21001;-78
2021/12/22 04:02:34;;;;;;;9.67;4.67;;;-6.20;99.90;;;-5.30;100.00;99009.66;5046546;28;20571;-78
2021/12/22 04:05:06;;;;;;;8.60;4.50;;;-6.00;99.90;;;-5.32;100.00;99002.09;5048329;28;20466;-78
2021/12/22 04:07:38;;;;;;;5.83;3.37;;;-6.20;99.90;;;-5.30;100.00;99007.09;5039182;28;20867;-78
2021/12/22 04:10:19;;;;;;;9.80;3.40;;;-6.20;99.90;;;-5.27;100.00;99007.81;5049101;28;20455;-78
2021/12/22 04:12:52;;;;;;;7.40;3.20;;;-6.10;99.90;;;-5.30;100.00;99005.38;5038772;28;20957;-78
2021/12/22 04:15:23;;;;;;;7.63;3.87;;;-6.20;99.90;;;-5.30;100.00;99004.56;5039756;28;20462;-78
2021/12/22 04:17:53;;;;;;;5.10;3.73;;;-6.20;99.90;;;-5.31;100.00;99002.94;5043288;28;20432;-78
2021/12/22 04:20:23;;;;;;;4.03;3.60;;;-6.20;99.90;;;-5.41;100.00;99002.47;5049365;28;20467;-78
2021/12/22 04:22:54;;;;;;;5.33;3.83;;;-6.30;99.90;;;-5.47;100.00;99010.38;5051260;28;20427;-78
2021/12/22 04:25:23;;;;;;;5.80;3.23;;;-6.40;99.90;;;-5.47;100.00;99012.09;5049420;28;20442;-78
2021/12/22 04:28:02;;;;;;;8.50;3.77;;;-6.40;99.90;;;-5.51;100.00;99013.09;5048236;28;20530;-78
2021/12/22 04:30:33;;;;;;;5.37;2.97;;;-6.40;99.90;;;-5.44;100.00;99011.94;5047663;28;20451;-78
2021/12/22 04:33:05;;;;;;;7.80;4.23;;;-6.30;99.90;;;-5.48;100.00;99010.44;5045936;28;20451;-79
2021/12/22 04:35:35;;;;;;;6.33;3.80;;;-6.30;99.90;;;-5.48;100.00;99020.66;5047925;28;20494;-79
2021/12/22 04:38:06;;;;;;;4.90;3.70;;;-6.40;99.90;;;-5.56;100.00;99020.13;5046384;28;21007;-78
2021/12/22 04:40:35;;;;;;;6.67;4.00;;;-6.40;99.90;;;-5.62;100.00;99011.81;5039335;28;20468;-78
2021/12/22 04:43:05;;;;;;;5.33;3.13;;;-6.50;99.90;;;-5.53;100.00;99017.44;5045177;28;20459;-78
2021/12/22 04:45:35;;;;;;;9.80;4.73;;;-6.30;99.90;;;-5.47;100.00;99012.09;5046027;28;20443;-78
2021/12/22 04:48:05;;;;;;;5.47;3.50;;;-6.30;99.90;;;-5.40;100.00;99008.38;5044156;28;20455;-78
2021/12/22 04:50:36;;;;;;;8.73;3.70;;;-6.20;99.90;;;-5.40;100.00;99008.38;5042376;28;20461;-78
2021/12/22 04:53:11;;;;;;;10.17;4.00;;;-6.30;99.90;;;-5.55;100.00;99014.16;5045512;28;20969;-79
2021/12/22 04:55:40;;;;;;;6.10;3.40;;;-6.30;99.90;;;-5.45;100.00;99005.22;5047994;28;20442;-78
2021/12/22 04:58:10;;;;;;;6.13;3.77;;;-6.30;99.90;;;-5.55;100.00;99014.16;5040997;28;20947;-79
2021/12/22 05:00:41;;;;;;;4.57;3.87;;;-6.50;99.90;;;-5.62;100.00;99014.38;5044939;28;20552;-79
2021/12/22 05:03:11;;;;;;;7.13;3.90;;;-6.60;99.90;;;-5.63;100.00;99017.84;5048354;28;20477;-79
2021/12/22 05:05:41;;;;;;;5.97;4.00;;;-6.60;99.90;;;-5.52;100.00;99011.47;5046323;28;20525;-79
2021/12/22 05:08:13;;;;;;;7.13;3.97;;;-6.40;99.90;;;-5.54;100.00;99005.59;5051096;28;20496;-79
2021/12/22 05:10:42;;;;;;;4.30;3.37;;;-6.40;99.90;;;-5.60;100.00;99007.50;5050801;28;20426;-79
2021/12/22 05:13:13;;;;;;;4.70;2.90;;;-6.40;99.90;;;-5.67;100.00;99005.28;5044104;28;20460;-79
2021/12/22 05:15:42;;;;;;;10.00;4.87;;;-6.60;99.90;;;-5.59;100.00;99003.25;5048127;28;20833;-79
2021/12/22 05:20:57;;;;;;;5.20;3.80;;;-6.40;99.90;;;-5.45;100.00;98997.59;5050108;28;20542;-79
2021/12/22 05:23:29;;;;;;;4.67;3.90;;;-6.20;99.90;;;-5.44;100.00;99004.31;5047681;28;20512;-79
2021/12/22 05:25:59;;;;;;;4.43;3.47;;;-6.20;99.90;;;-5.43;100.00;99003.44;5043910;28;20942;-78
2021/12/22 05:28:33;;;;;;;18.40;3.73;;;-6.20;99.90;;;-5.48;100.00;99000.25;5054299;28;20447;-79
2021/12/22 05:31:02;;;;;;;7.77;3.70;;;-6.30;99.90;;;-5.47;100.00;99001.91;5056545;28;20945;-79
2021/12/22 05:33:32;;;;;;;8.93;3.10;;;-6.30;99.90;;;-5.52;100.00;99014.00;5052445;28;20483;-79
2021/12/22 05:36:02;;;;;;;4.00;3.57;;;-6.40;99.90;;;-5.45;100.00;99010.31;5052955;28;20503;-80
2021/12/22 05:38:34;;;;;;;9.20;4.03;;;-6.30;99.90;;;-5.43;100.00;99009.34;5050399;28;20457;-80
2021/12/22 05:41:04;;;;;;;5.70;3.50;;;-6.30;99.90;;;-5.41;100.00;99012.66;5052144;28;20993;-79
2021/12/22 05:43:34;;;;;;;5.50;3.70;;;-6.30;99.90;;;-5.39;100.00;99010.06;5046369;28;20428;-79
2021/12/22 05:46:04;;;;;;;5.83;4.20;;;-6.20;99.90;;;-5.38;100.00;99007.44;5047779;28;20426;-79
2021/12/22 05:48:34;;;;;;;4.13;3.63;;;-6.20;99.90;;;-5.35;100.00;99014.13;5041990;28;20448;-80
2021/12/22 05:51:03;;;;;;;10.27;4.17;;;-6.20;99.90;;;-5.36;100.00;99013.31;5050699;28;20802;-79
2021/12/22 05:53:35;;;;;;;6.90;4.03;;;-6.20;99.90;;;-5.33;100.00;99013.16;5038750;28;20672;-80
2021/12/22 05:56:06;;;;;;;5.60;3.40;;;-6.20;99.90;;;-5.29;100.00;99011.31;5048779;28;20468;-80
2021/12/22 05:58:37;;;;;;;3.90;3.20;;;-6.00;99.90;;;-5.22;100.00;99012.72;5044580;28;20427;-79
2021/12/22 06:01:06;;;;;;;8.83;4.47;;;-6.00;99.90;;;-5.19;100.00;99012.59;5051224;28;20461;-80
2021/12/22 06:03:37;;;;;;;6.40;3.60;;;-6.00;99.90;;;-5.18;100.00;99014.25;5051226;28;20427;-80
2021/12/22 06:06:07;;;;;;;6.00;3.83;;;-6.00;99.90;;;-5.20;100.00;99011.75;5046458;28;20431;-80
2021/12/22 06:08:39;;;;;;;6.20;3.53;;;-6.00;99.90;;;-5.13;100.00;99014.84;5051989;28;20440;-79
2021/12/22 06:11:08;;;;;;;6.80;3.73;;;-5.90;99.90;;;-5.13;100.00;99022.50;5051233;28;20457;-80
2021/12/22 06:13:39;;;;;;;5.07;3.27;;;-5.90;99.90;;;-5.12;100.00;99013.97;5049731;28;20444;-80
2021/12/22 06:16:08;;;;;;;8.70;3.37;;;-5.90;99.90;;;-5.09;100.00;99021.47;5049614;28;20441;-79
2021/12/22 06:18:42;;;;;;;6.20;3.83;;;-5.90;99.90;;;-5.05;100.00;99025.56;5048205;28;20420;-79
2021/12/22 06:21:15;;;;;;;8.93;4.50;;;-5.80;99.90;;;-4.99;100.00;99030.38;5051772;28;20438;-79
2021/12/22 06:23:45;;;;;;;10.87;4.20;;;-5.80;99.90;;;-4.98;100.00;99037.16;5052962;28;20443;-79
2021/12/22 06:26:15;;;;;;;8.30;3.80;;;-5.70;99.90;;;-4.96;100.00;99034.56;5051296;28;20546;-80
2021/12/22 06:28:46;;;;;;;7.10;3.47;;;-5.70;99.90;;;-4.97;100.00;99028.63;5050857;28;20531;-79
2021/12/22 06:31:15;;;;;;;4.00;3.10;;;-5.80;99.90;;;-4.93;100.00;99030.16;5055949;28;20432;-80
2021/12/22 06:33:45;;;;;;;5.37;3.50;;;-5.70;99.90;;;-4.97;100.00;99028.63;5050284;28;20791;-80
2021/12/22 06:36:15;;;;;;;6.20;3.90;;;-5.70;99.90;;;-4.96;100.00;99030.25;5050309;28;20438;-79
2021/12/22 06:38:46;;;;;;;8.13;4.20;;;-5.70;99.90;;;-4.93;100.00;99029.31;5046375;28;20518;-79
2021/12/22 06:41:15;;;;;;;8.03;4.10;;;-5.70;99.90;;;-4.89;100.00;99025.72;5051273;28;20445;-80
2021/12/22 06:43:46;;;;;;;6.87;4.17;;;-5.60;99.90;;;-4.84;100.00;99024.63;5050102;28;20933;-80
2021/12/22 06:46:15;;;;;;;6.27;4.00;;;-5.50;99.90;;;-4.81;100.00;99027.03;5050334;28;20436;-79
2021/12/22 06:48:44;;;;;;;9.30;4.70;;;-5.60;99.90;;;-4.82;100.00;99035.56;5052372;28;20871;-79
2021/12/22 06:51:14;;;;;;;10.07;4.17;;;-5.60;99.90;;;-4.79;100.00;99030.34;5047645;28;20448;-79
2021/12/22 06:53:45;;;;;;;7.87;3.37;;;-5.60;99.90;;;-4.74;100.00;99035.25;5050207;28;20923;-79
2021/12/22 06:56:16;;;;;;;10.13;3.97;;;-5.50;99.90;;;-4.69;100.00;99038.44;5045944;28;20416;-80
2021/12/22 06:58:45;;;;;;;5.43;3.77;;;-5.50;99.90;;;-4.69;100.00;99031.63;5044999;28;20448;-80
2021/12/22 07:01:19;;;;;;;5.50;4.57;;;-5.30;99.90;;;-4.68;100.00;99043.44;5052561;28;20514;-80
2021/12/22 07:03:50;;;;;;;9.27;4.73;;;-5.40;99.90;;;-4.62;100.00;99032.97;5049528;28;20959;-79
2021/12/22 07:06:21;;;;;;;6.07;4.83;;;-5.40;99.90;;;-4.57;100.00;99033.59;5048997;28;20446;-79
2021/12/22 07:08:55;;;;;;;7.60;4.63;;;-5.30;99.90;;;-4.48;100.00;99036.66;5041535;28;20443;-79
2021/12/22 07:11:25;;;;;;;8.40;4.30;;;-5.20;99.90;;;-4.43;100.00;99034.69;5050094;28;20950;-80
2021/12/22 07:13:55;;;;;;;6.00;4.50;;;-5.20;99.90;;;-4.39;100.00;99042.16;5053452;28;20899;-79
2021/12/22 07:16:26;;;;;;;14.87;4.63;;;-5.10;99.90;;;-4.34;100.00;99044.50;5049041;28;20443;-80
2021/12/22 07:18:56;;;;;;;7.03;5.00;;;-5.00;99.90;;;-4.28;100.00;99039.13;5049852;28;20510;-80
2021/12/22 07:21:25;;;;;;;7.80;4.30;;;-5.00;99.90;;;-4.24;100.00;99045.75;5049227;28;20453;-80
2021/12/22 07:23:56;;;;;;;7.17;4.47;;;-4.90;99.90;;;-4.20;100.00;99047.25;5049926;28;20475;-80
2021/12/22 07:26:26;;;;;;;5.37;3.90;;;-4.90;99.90;;;-4.17;100.00;99049.66;5049908;28;20424;-80
2021/12/22 07:28:56;;;;;;;9.27;4.53;;;-4.80;99.90;;;-4.15;100.00;99050.41;5049514;28;20449;-80
2021/12/22 07:31:26;;;;;;;9.60;4.93;;;-4.80;99.90;;;-4.12;100.00;99052.81;5047604;28;20906;-80
2021/12/22 07:34:06;;;;;;;8.90;3.97;;;-4.80;99.90;;;-4.13;100.00;99054.53;5049895;28;20459;-80
2021/12/22 07:36:50;;;;;;;7.83;4.10;;;-4.70;99.90;;;-4.10;100.00;99048.47;5048691;28;20438;-79
2021/12/22 07:39:21;;;;;;;6.73;4.03;;;-4.60;99.90;;;-4.06;100.00;99052.53;5042871;28;20447;-80
2021/12/22 07:41:51;;;;;;;6.73;3.63;;;-4.60;99.90;;;-4.05;100.00;99051.63;5031783;28;20507;-80
2021/12/22 07:44:20;;;;;;;6.13;4.50;;;-4.70;99.90;;;-4.07;100.00;99054.28;5042857;28;20530;-80
2021/12/22 07:46:49;;;;;;;6.37;4.10;;;-4.80;99.90;;;-4.05;100.00;99054.19;5048440;28;20532;-80
2021/12/22 07:49:18;;;;;;;11.33;4.27;;;-4.80;99.90;;;-4.01;100.00;99055.72;5056710;28;21018;-80
2021/12/22 07:51:48;;;;;;;6.53;4.33;;;-4.70;99.90;;;-4.00;100.00;99052.25;5048461;28;20453;-79
2021/12/22 07:54:18;;;;;;;9.60;4.57;;;-4.70;99.90;;;-3.97;100.00;99049.56;5049526;28;20446;-79
2021/12/22 07:56:49;;;;;;;5.73;3.93;;;-4.60;99.90;;;-3.95;100.00;99047.75;5046879;28;20445;-79
2021/12/22 07:59:18;;;;;;;8.00;4.60;;;-4.60;99.90;;;-3.92;100.00;99052.72;5049725;28;20485;-80
2021/12/22 08:01:48;;;;;;;13.93;5.87;;;-4.60;99.90;;;-3.92;100.00;99041.69;5048917;28;20833;-80
2021/12/22 08:04:19;;;;;;;8.83;5.50;;;-4.60;99.90;;;-3.92;100.00;99047.59;5044477;28;20497;-79
2021/12/22 08:06:50;;;;;;;7.17;4.37;;;-4.60;99.90;;;-3.88;100.00;99048.28;5048410;28;20465;-79
2021/12/22 08:09:25;;;;;;;7.23;4.30;;;-4.50;99.90;;;-3.87;100.00;99045.66;5053174;28;20449;-79
2021/12/22 08:12:04;;;;;;;6.77;4.20;;;-4.50;99.90;;;-3.86;100.00;99049.88;5048642;28;20460;-80
2021/12/22 08:14:34;;;;;;;5.33;4.40;;;-4.50;99.90;;;-3.82;100.00;99050.56;5048595;28;20439;-80
2021/12/22 08:17:04;;;;;;;6.57;4.10;;;-4.40;99.90;;;-3.82;100.00;99053.97;5050740;28;20449;-79
2021/12/22 08:19:34;;;;;;;8.03;5.03;;;-4.40;99.90;;;-3.81;100.00;99045.38;5048623;28;20453;-79
2021/12/22 08:22:04;;;;;;;8.60;4.60;;;-4.40;99.90;;;-3.78;100.00;99045.22;5048859;28;20428;-79
2021/12/22 08:24:37;;;;;;;12.67;4.90;;;-4.30;99.90;;;-3.75;100.00;99051.94;5048995;28;20478;-79
2021/12/22 08:27:09;;;;;;;12.20;4.73;;;-4.30;99.90;;;-3.72;100.00;99052.63;5048985;28;20453;-79
2021/12/22 08:29:42;;;;;;;5.27;4.30;;;-4.30;99.90;;;-3.71;100.00;99046.59;5046739;28;20449;-80
2021/12/22 08:32:13;;;;;;;6.90;4.73;;;-4.20;99.90;;;-3.68;100.00;99041.31;5048876;28;20546;-80
2021/12/22 08:34:46;;;;;;;8.37;4.53;;;-4.20;99.90;;;-3.64;100.00;99042.00;5048369;28;20445;-79
2021/12/22 08:40:09;;;;;;;9.33;5.07;;;-4.10;99.90;;;-3.64;100.00;99042.84;5009889;28;21396;-80
2021/12/22 08:42:39;;;;;;;6.67;5.47;;;-4.10;99.90;;;-3.62;100.00;99041.03;5049732;28;20431;-79
2021/12/22 08:45:10;;;;;;;15.17;7.90;;;-4.20;99.90;;;-3.57;100.00;99039.06;5049255;28;20417;-79
2021/12/22 08:47:39;;;;;;;10.17;5.53;;;-4.10;99.90;;;-3.53;100.00;99036.38;5050750;28;20985;-79
2021/12/22 08:50:12;;;;;;;5.80;4.30;;;-4.00;99.90;;;-3.48;100.00;99031.88;5052100;28;20484;-79
2021/12/22 08:52:42;;;;;;;11.73;5.60;;;-4.00;99.90;;;-3.44;100.00;99033.38;5054222;28;20438;-80
2021/12/22 08:55:11;;;;;;;8.90;6.03;;;-3.90;99.90;;;-3.40;100.00;99042.56;5055824;28;20797;-80
2021/12/22 08:57:42;;;;;;;10.20;5.50;;;-3.90;99.90;;;-3.35;100.00;99041.41;5052206;28;20533;-80
2021/12/22 09:00:15;;;;;;;14.40;5.60;;;-3.90;99.90;;;-3.28;100.00;99032.53;5048698;28;20605;-79
2021/12/22 09:02:46;;;;;;;7.23;5.17;;;-3.90;99.90;;;-3.24;100.00;99040.88;5051890;28;20423;-79
2021/12/22 09:05:16;;;;;;;8.23;4.83;;;-3.80;99.90;;;-3.23;100.00;99027.22;5046105;28;20449;-79
2021/12/22 09:07:46;;;;;;;9.13;5.00;;;-3.80;99.90;;;-3.18;100.00;99027.78;5054716;28;20516;-79
2021/12/22 09:10:17;;;;;;;9.47;6.00;;;-3.70;99.90;;;-3.15;100.00;99025.06;5047054;28;20457;-79
2021/12/22 09:12:48;;;;;;;12.77;6.10;;;-3.70;99.90;;;-3.14;100.00;99022.44;5046833;28;20537;-79
2021/12/22 09:15:19;;;;;;;8.17;6.00;;;-3.60;99.90;;;-3.11;100.00;99026.56;5052020;28;20509;-79
2021/12/22 09:17:50;;;;;;;7.70;4.73;;;-3.70;99.90;;;-3.05;100.00;99026.25;5051484;28;20450;-79
2021/12/22 09:20:18;;;;;;;8.13;5.40;;;-3.60;99.90;;;-2.99;100.00;99017.47;5048991;28;20504;-80
2021/12/22 09:22:48;;;;;;;7.67;5.27;;;-3.70;99.90;;;-2.94;100.00;99023.16;5054105;28;20465;-79
2021/12/22 09:25:18;;;;;;;13.53;5.77;;;-3.50;99.90;;;-2.88;100.00;99023.66;5051482;28;20438;-79
2021/12/22 09:27:49;;;;;;;15.80;6.67;;;-3.50;99.90;;;-2.86;100.00;99016.75;5051335;28;20473;-79
2021/12/22 09:30:18;;;;;;;14.17;6.80;;;-3.50;99.90;;;-2.80;100.00;99024.09;5051616;28;20416;-80
2021/12/22 09:32:47;;;;;;;9.83;6.30;;;-3.40;99.90;;;-2.78;100.00;99019.75;5051682;28;20451;-79
2021/12/22 09:35:17;;;;;;;10.17;5.53;;;-3.30;99.90;;;-2.75;100.00;99022.13;5052877;28;20474;-79
2021/12/22 09:37:48;;;;;;;13.37;7.23;;;-3.40;99.90;;;-2.71;100.00;99021.03;5050411;28;20501;-80
2021/12/22 09:40:19;;;;;;;14.00;6.77;;;-3.40;99.90;;;-2.69;100.00;99014.13;5051005;28;20750;-79
2021/12/22 09:42:50;;;;;;;15.70;7.13;;;-3.40;99.90;;;-2.65;100.00;99019.91;5051067;28;20448;-79
2021/12/22 09:45:23;;;;;;;14.13;8.07;;;-3.30;99.90;;;-2.62;100.00;99015.47;5051186;28;20495;-79
2021/12/22 09:48:21;;;;;;;13.70;6.47;;;-3.20;99.90;;;-2.58;100.00;99011.84;5051644;28;20442;-79
2021/12/22 09:52:15;;;;;;;13.83;6.47;;;-3.10;99.90;;;-2.53;100.00;99005.66;5050174;28;20515;-79
2021/12/22 09:53:47;;;;;;;17.67;7.17;;;-3.20;99.90;;;-2.46;100.00;99001.84;5050215;28;21023;-80
2021/12/22 09:56:21;;;;;;;17.27;8.97;;;-3.10;99.90;;;-2.41;100.00;98997.28;5050500;28;20473;-79
2021/12/22 09:58:52;;;;;;;15.90;8.60;;;-3.00;99.90;;;-2.36;100.00;99000.44;5051223;28;20879;-79
2021/12/22 10:01:25;;;;;;;14.97;7.73;;;-2.80;99.90;;;-2.29;100.00;99002.56;5051242;28;21058;-80
2021/12/22 10:03:59;;;;;;;26.50;8.50;;;-2.80;99.90;;;-2.24;100.00;98986.97;5045581;28;21013;-79
2021/12/22 10:06:30;;;;;;;13.57;7.83;;;-2.70;99.90;;;-2.22;100.00;98987.72;5047873;28;20475;-79
2021/12/22 10:09:06;;;;;;;11.77;7.50;;;-2.70;99.90;;;-2.20;100.00;98981.59;5047533;28;20965;-79
2021/12/22 10:11:44;;;;;;;15.00;6.90;;;-2.60;99.90;;;-2.17;100.00;98975.47;5048543;28;21089;-79
2021/12/22 10:14:21;;;;;;;10.33;7.83;;;-2.70;99.90;;;-2.13;100.00;98977.78;5049311;28;20460;-79
2021/12/22 10:16:55;;;;;;;13.47;8.07;;;-2.70;99.90;;;-2.11;100.00;98980.25;5043366;28;20963;-79
2021/12/22 10:19:27;;;;;;;13.57;8.00;;;-2.70;99.90;;;-2.08;100.00;98978.34;5049885;28;20547;-79
2021/12/22 10:22:01;;;;;;;15.87;8.80;;;-2.70;99.90;;;-2.06;100.00;98970.59;5049582;28;20447;-79
2021/12/22 10:24:40;;;;;;;15.17;8.30;;;-2.70;99.90;;;-2.04;100.00;98973.88;5045984;28;20560;-79
2021/12/22 10:27:19;;;;;;;13.00;8.20;;;-2.70;99.90;;;-2.03;100.00;98962.72;5050496;28;20462;-79
2021/12/22 10:29:51;;;;;;;16.53;8.90;;;-2.80;99.90;;;-2.03;100.00;98962.72;5047327;28;21007;-79
2021/12/22 10:32:21;;;;;;;11.50;7.73;;;-2.80;99.90;;;-2.02;100.00;98959.25;5050813;28;20451;-80
2021/12/22 10:34:58;;;;;;;16.33;8.40;;;-2.80;99.90;;;-2.10;100.00;98964.81;5047590;28;20458;-79
2021/12/22 10:37:36;;;;;;;13.17;8.77;;;-2.80;99.90;;;-2.11;100.00;98965.69;5045917;28;20461;-79
2021/12/22 10:40:30;;;;;;;15.03;8.23;;;-2.80;99.90;;;-2.16;100.00;98961.75;5050277;28;20461;-79